Terminal Aerodrome Forecast
Issued by NWS

Home | Current Version | Previous Version | Text Only | Print | Product List | Glossary On
Versions: 1 2 3 4 5 6 7 8 9 10 11 12 13 14 15 16
000
FTUS43 KMQT 230500
TAFSAW
TAF
KSAW 230520Z 2306/2406 23004KT P6SM SKC
     FM231300 26005KT P6SM SKC
     FM232100 04006KT P6SM SKC
     FM240000 17006KT P6SM SKC
      AMD LTD TO CLD VIS AND WIND TIL 231000=

USA.gov is the U.S. government's official web portal to all federal, state and local government web resources and services.